Havana, Minnesota
Current Conditions -  °F | °C
As of 10:55 PM on Thursday 30 Oct 2014 (Local Time) from KOWA Reporting Station
Scattered Clouds Scattered Clouds  
Wind Chill: 30°   Ceiling: Unl
Heat Index: 39°   Visibility: 10mi
Dew Point: 21°   Wind: 20mph
Humidity: 49%   Direction: 330°NNW
Pressure: 30.28"   Gusts: 29mph
Location:  44.0575°N, 93.2082°W
Report Text: KOWA 310355Z AUTO 33017G25KT 10SM SCT046 04/M06 A3028 RMK AO2
Loading
Personal Weather Stations






























Interactive Weather Map
Tropical Storm Tracking
New forecast layout! Learn more

10-Day Weather Forecast

Advertisements
Track Severe Weather on mobile